createdAt,value
2018-04-22T00:00:06.569Z,67.29
2018-04-22T00:01:07.066Z,66.86
2018-04-22T00:02:07.069Z,67.73
2018-04-22T00:03:06.317Z,68.15
2018-04-22T00:04:06.247Z,68.15
2018-04-22T00:05:06.172Z,68.34
2018-04-22T00:06:06.105Z,68.30
2018-04-22T00:07:06.028Z,67.92
2018-04-22T00:08:05.954Z,67.83
2018-04-22T00:09:05.894Z,68.02
2018-04-22T00:10:05.818Z,68.12
2018-04-22T00:11:07.069Z,68.02
2018-04-22T00:12:05.671Z,68.12
2018-04-22T00:13:05.591Z,68.21
2018-04-22T00:14:05.519Z,68.50
2018-04-22T00:15:05.464Z,68.50
2018-04-22T00:16:05.375Z,68.21
2018-04-22T00:17:05.311Z,68.12
2018-04-22T00:18:05.227Z,68.79
2018-04-22T00:19:05.155Z,68.98
2018-04-22T00:20:05.085Z,68.59
2018-04-22T00:21:05.020Z,68.40
2018-04-22T00:22:04.936Z,68.59
2018-04-22T00:23:04.861Z,68.50
2018-04-22T00:24:04.793Z,68.50
2018-04-22T00:25:04.718Z,68.79
2018-04-22T00:26:04.643Z,68.50
2018-04-22T00:27:05.077Z,68.30
2018-04-22T00:28:04.522Z,68.88
2018-04-22T00:29:04.425Z,68.69
2018-04-22T00:30:04.353Z,68.21
2018-04-22T00:31:04.281Z,68.59
2018-04-22T00:32:04.215Z,68.50
2018-04-22T00:33:05.574Z,69.65
2018-04-22T00:34:04.062Z,68.98
2018-04-22T00:35:03.991Z,68.59
2018-04-22T00:36:03.932Z,69.56
2018-04-22T00:37:03.857Z,69.56
2018-04-22T00:38:04.577Z,68.69
2018-04-22T00:39:03.696Z,69.36
2018-04-22T00:40:03.625Z,69.46
2018-04-22T00:41:03.559Z,69.56
2018-04-22T00:42:03.477Z,69.84
2018-04-22T00:43:03.404Z,69.56
2018-04-22T00:44:03.334Z,69.56
2018-04-22T00:45:04.082Z,69.56
2018-04-22T00:46:03.187Z,69.36
2018-04-22T00:47:03.113Z,69.65
2018-04-22T00:48:03.053Z,69.93
2018-04-22T00:49:02.972Z,70.42
2018-04-22T00:50:02.897Z,69.84
2018-04-22T00:51:02.823Z,69.93
2018-04-22T00:52:02.750Z,69.65
2018-04-22T00:53:02.707Z,69.65
2018-04-22T00:54:02.603Z,69.62
2018-04-22T00:55:02.529Z,70.38
2018-04-22T00:56:03.085Z,71.15
2018-04-22T00:57:02.383Z,70.76
2018-04-22T00:58:02.312Z,70.48
2018-04-22T00:59:02.245Z,70.38
2018-04-22T01:00:02.167Z,70.67
2018-04-22T01:01:02.094Z,70.96
2018-04-22T01:02:02.020Z,70.48
2018-04-22T01:03:01.945Z,71.15
2018-04-22T01:04:01.872Z,71.05
2018-04-22T01:05:01.807Z,70.86
2018-04-22T01:06:01.731Z,71.05
2018-04-22T01:07:01.674Z,71.25
2018-04-22T01:08:02.088Z,71.63
2018-04-22T01:09:02.089Z,71.63
2018-04-22T01:10:01.433Z,71.53
2018-04-22T01:11:01.362Z,71.92
2018-04-22T01:12:01.289Z,71.34
2018-04-22T01:13:01.216Z,70.86
2018-04-22T01:14:01.143Z,71.72
2018-04-22T01:15:01.068Z,71.53
2018-04-22T01:16:00.998Z,71.63
2018-04-22T01:17:00.922Z,71.44
2018-04-22T01:18:00.856Z,71.72
2018-04-22T01:19:00.798Z,71.82
2018-04-22T01:20:00.701Z,71.44
2018-04-22T01:21:00.637Z,71.63
2018-04-22T01:22:00.561Z,71.72
2018-04-22T01:23:00.485Z,71.05
2018-04-22T01:24:00.415Z,71.15
2018-04-22T01:25:01.094Z,71.63
2018-04-22T01:26:00.268Z,71.82
2018-04-22T01:27:00.197Z,71.34
2018-04-22T01:28:00.121Z,72.49
2018-04-22T01:29:00.048Z,72.30
2018-04-22T01:29:59.980Z,72.30
2018-04-22T01:30:59.900Z,72.49
2018-04-22T01:32:00.614Z,72.01
2018-04-22T01:32:59.754Z,71.44
2018-04-22T01:33:59.686Z,71.63
2018-04-22T01:34:59.609Z,72.20
2018-04-22T01:35:59.533Z,72.49
2018-04-22T01:36:59.464Z,72.30
2018-04-22T01:37:59.388Z,72.39
2018-04-22T01:38:59.316Z,72.11
2018-04-22T01:39:59.242Z,71.44
2018-04-22T01:40:59.168Z,72.01
2018-04-22T01:41:59.098Z,71.72
2018-04-22T01:42:59.022Z,71.31
2018-04-22T01:43:58.951Z,71.53
2018-04-22T01:44:58.876Z,72.59
2018-04-22T01:45:58.807Z,72.27
2018-04-22T01:46:58.725Z,72.17
2018-04-22T01:47:58.664Z,72.17
2018-04-22T01:48:58.579Z,72.17
2018-04-22T01:49:59.604Z,72.64
2018-04-22T01:50:58.441Z,72.36
2018-04-22T01:51:58.362Z,72.55
2018-04-22T01:52:58.310Z,72.55
2018-04-22T01:53:58.213Z,71.98
2018-04-22T01:54:59.103Z,73.13
2018-04-22T01:55:58.617Z,73.03
2018-04-22T01:56:57.996Z,72.94
2018-04-22T01:57:57.922Z,72.94
2018-04-22T01:58:57.845Z,73.03
2018-04-22T01:59:57.772Z,72.64
2018-04-22T02:00:57.736Z,72.45
2018-04-22T02:01:57.626Z,72.84
2018-04-22T02:02:57.550Z,73.13
2018-04-22T02:03:57.478Z,72.74
2018-04-22T02:04:57.410Z,72.74
2018-04-22T02:05:57.330Z,72.94
2018-04-22T02:06:57.259Z,72.94
2018-04-22T02:07:57.182Z,72.74
2018-04-22T02:08:57.108Z,73.03
2018-04-22T02:09:57.035Z,73.32
2018-04-22T02:10:56.960Z,72.94
2018-04-22T02:11:56.956Z,73.03
2018-04-22T02:12:56.820Z,73.90
2018-04-22T02:13:56.740Z,73.32
2018-04-22T02:14:56.668Z,73.70
2018-04-22T02:15:56.597Z,73.51
2018-04-22T02:16:56.521Z,73.32
2018-04-22T02:17:56.446Z,72.94
2018-04-22T02:18:56.371Z,73.32
2018-04-22T02:19:56.306Z,73.51
2018-04-22T02:20:56.225Z,73.13
2018-04-22T02:21:56.150Z,73.51
2018-04-22T02:22:56.078Z,73.51
2018-04-22T02:23:56.002Z,73.61
2018-04-22T02:24:55.931Z,73.28
2018-04-22T02:25:55.859Z,73.90
2018-04-22T02:26:55.785Z,73.80
2018-04-22T02:27:55.712Z,74.33
2018-04-22T02:28:55.636Z,74.15
2018-04-22T02:29:55.564Z,74.24
2018-04-22T02:30:55.500Z,74.05
2018-04-22T02:31:55.414Z,74.15
2018-04-22T02:32:55.343Z,74.24
2018-04-22T02:33:55.290Z,74.72
2018-04-22T02:34:55.191Z,74.52
2018-04-22T02:35:55.118Z,73.86
2018-04-22T02:36:55.046Z,74.33
2018-04-22T02:37:54.990Z,74.33
2018-04-22T02:38:54.897Z,73.95
2018-04-22T02:39:54.826Z,73.66
2018-04-22T02:40:54.750Z,74.43
2018-04-22T02:41:54.675Z,74.52
2018-04-22T02:42:54.606Z,74.33
2018-04-22T02:43:54.529Z,74.52
2018-04-22T02:44:54.467Z,74.52
2018-04-22T02:45:54.383Z,74.24
2018-04-22T02:46:54.309Z,74.15
2018-04-22T02:47:54.232Z,74.33
2018-04-22T02:48:54.159Z,74.15
2018-04-22T02:49:54.084Z,74.33
2018-04-22T02:50:54.010Z,74.72
2018-04-22T02:51:53.937Z,75.01
2018-04-22T02:52:53.869Z,75.01
2018-04-22T02:53:53.789Z,75.29
2018-04-22T02:54:53.719Z,74.62
2018-04-22T02:55:53.669Z,74.82
2018-04-22T02:56:53.569Z,75.29
2018-04-22T02:57:53.498Z,75.10
2018-04-22T02:58:53.417Z,74.91
2018-04-22T02:59:53.356Z,74.62
2018-04-22T03:00:53.271Z,75.39
2018-04-22T03:01:53.199Z,74.91
2018-04-22T03:02:53.123Z,75.20
2018-04-22T03:03:53.056Z,74.62
2018-04-22T03:04:52.980Z,74.52
2018-04-22T03:05:52.909Z,74.82
2018-04-22T03:06:52.828Z,75.29
2018-04-22T03:07:52.754Z,75.58
2018-04-22T03:08:52.681Z,75.29
2018-04-22T03:09:52.605Z,75.10
2018-04-22T03:10:52.532Z,75.77
2018-04-22T03:11:52.457Z,75.39
2018-04-22T03:12:52.384Z,75.48
2018-04-22T03:13:52.309Z,75.01
2018-04-22T03:14:52.239Z,75.29
2018-04-22T03:15:52.165Z,75.01
2018-04-22T03:16:52.092Z,75.20
2018-04-22T03:17:52.025Z,75.29
2018-04-22T03:18:51.940Z,75.39
2018-04-22T03:19:51.880Z,75.93
2018-04-22T03:20:51.794Z,76.54
2018-04-22T03:21:51.718Z,76.50
2018-04-22T03:22:51.654Z,76.73
2018-04-22T03:23:51.572Z,76.98
2018-04-22T03:24:51.497Z,76.98
2018-04-22T03:25:51.467Z,77.55
2018-04-22T03:26:51.348Z,77.17
2018-04-22T03:27:51.273Z,76.31
2018-04-22T03:28:51.201Z,76.60
2018-04-22T03:29:51.129Z,76.40
2018-04-22T03:30:51.056Z,76.21
2018-04-22T03:31:50.979Z,76.69
2018-04-22T03:32:50.959Z,76.98
2018-04-22T03:33:50.833Z,77.26
2018-04-22T03:34:50.765Z,76.89
2018-04-22T03:35:50.679Z,77.26
2018-04-22T03:36:50.608Z,77.17
2018-04-22T03:37:50.533Z,76.79
2018-04-22T03:38:50.462Z,77.08
2018-04-22T03:39:50.387Z,76.89
2018-04-22T03:40:50.322Z,77.26
2018-04-22T03:41:50.242Z,77.26
2018-04-22T03:42:50.165Z,77.55
2018-04-22T03:43:50.090Z,77.46
2018-04-22T03:44:50.014Z,77.55
2018-04-22T03:45:49.942Z,77.23
2018-04-22T03:46:49.868Z,77.90
2018-04-22T03:47:49.797Z,77.90
2018-04-22T03:48:49.731Z,78.09
2018-04-22T03:49:49.645Z,77.99
2018-04-22T03:50:49.590Z,78.28
2018-04-22T03:51:49.499Z,78.19
2018-04-22T03:52:49.423Z,78.38
2018-04-22T03:53:49.357Z,77.80
2018-04-22T03:54:49.299Z,77.61
2018-04-22T03:55:49.202Z,77.61
2018-04-22T03:56:49.128Z,77.99
2018-04-22T03:57:49.052Z,77.75
2018-04-22T03:58:48.979Z,77.75
2018-04-22T03:59:48.902Z,77.75
2018-04-22T04:00:48.841Z,77.80
2018-04-22T04:01:48.753Z,77.99
2018-04-22T04:02:48.678Z,77.99
2018-04-22T04:03:48.605Z,78.47
2018-04-22T04:04:48.535Z,78.38
2018-04-22T04:05:48.458Z,79.24
2018-04-22T04:06:48.384Z,79.24
2018-04-22T04:07:48.315Z,79.05
2018-04-22T04:08:48.235Z,77.94
2018-04-22T04:09:48.162Z,78.03
2018-04-22T04:10:48.098Z,77.80
2018-04-22T04:11:48.010Z,78.66
2018-04-22T04:12:47.937Z,78.57
2018-04-22T04:13:47.863Z,78.28
2018-04-22T04:14:47.789Z,78.38
2018-04-22T04:15:47.715Z,78.09
2018-04-22T04:16:47.643Z,77.70
2018-04-22T04:17:47.569Z,77.70
2018-04-22T04:18:47.489Z,77.61
2018-04-22T04:19:47.415Z,78.03
2018-04-22T04:20:47.347Z,78.47
2018-04-22T04:21:47.263Z,78.86
2018-04-22T04:22:47.192Z,78.76
2018-04-22T04:23:47.117Z,78.57
2018-04-22T04:24:47.047Z,78.38
2018-04-22T04:25:46.969Z,77.90
2018-04-22T04:26:46.897Z,78.28
2018-04-22T04:27:46.823Z,77.99
2018-04-22T04:28:46.745Z,77.90
2018-04-22T04:29:46.671Z,77.80
2018-04-22T04:30:46.630Z,78.57
2018-04-22T04:31:46.525Z,78.95
2018-04-22T04:32:46.448Z,79.24
2018-04-22T04:33:46.371Z,78.86
2018-04-22T04:34:46.298Z,78.28
2018-04-22T04:35:46.226Z,77.80
2018-04-22T04:36:46.150Z,78.47
2018-04-22T04:37:46.074Z,77.80
2018-04-22T04:40:28.672Z,78.09
2018-04-22T04:41:28.509Z,79.05
2018-04-22T04:42:28.439Z,78.57
2018-04-22T04:43:28.404Z,78.86
2018-04-22T04:44:28.282Z,79.52
2018-04-22T04:45:28.208Z,79.39
2018-04-22T04:46:28.138Z,79.43
2018-04-22T04:47:28.061Z,79.58
2018-04-22T04:48:27.997Z,79.58
2018-04-22T04:49:27.912Z,79.58
2018-04-22T04:50:27.840Z,79.39
2018-04-22T04:51:27.761Z,79.49
2018-04-22T04:52:27.688Z,79.58
2018-04-22T04:53:27.613Z,79.39
2018-04-22T04:54:27.536Z,78.91
2018-04-22T04:55:27.463Z,79.43
2018-04-22T04:56:27.396Z,79.49
2018-04-22T04:57:27.315Z,79.96
2018-04-22T04:58:27.238Z,80.73
2018-04-22T04:59:27.164Z,80.63
2018-04-22T05:00:27.091Z,80.54
2018-04-22T05:01:27.017Z,80.82
2018-04-22T05:02:26.939Z,80.73
2018-04-22T05:03:26.865Z,80.82
2018-04-22T05:04:26.793Z,80.82
2018-04-22T05:05:26.721Z,80.44
2018-04-22T05:06:26.653Z,80.92
2018-04-22T05:07:26.567Z,80.63
2018-04-22T05:08:26.495Z,80.73
2018-04-22T05:09:26.416Z,79.96
2018-04-22T05:10:26.341Z,80.25
2018-04-22T05:11:26.270Z,79.91
2018-04-22T05:12:26.206Z,80.16
2018-04-22T05:13:26.144Z,79.87
2018-04-22T05:14:26.044Z,80.16
2018-04-22T05:15:25.972Z,80.73
2018-04-22T05:16:25.912Z,80.44
2018-04-22T05:17:25.823Z,80.44
2018-04-22T05:18:25.745Z,80.35
2018-04-22T05:19:25.671Z,80.35
2018-04-22T05:20:25.595Z,80.54
2018-04-22T05:21:25.543Z,80.73
2018-04-22T05:22:25.461Z,81.49
2018-04-22T05:23:25.374Z,81.59
2018-04-22T05:24:25.341Z,81.21
2018-04-22T05:25:25.232Z,81.40
2018-04-22T05:26:25.151Z,81.11
2018-04-22T05:27:25.073Z,81.30
2018-04-22T05:28:25.000Z,81.59
2018-04-22T05:29:24.935Z,81.21
2018-04-22T05:30:24.870Z,81.40
2018-04-22T05:31:24.777Z,81.63
2018-04-22T05:32:24.717Z,81.21
2018-04-22T05:33:24.631Z,81.63
2018-04-22T05:34:24.560Z,81.15
2018-04-22T05:35:24.481Z,81.44
2018-04-22T05:36:24.447Z,80.67
2018-04-22T05:37:24.330Z,80.87
2018-04-22T05:38:24.255Z,80.58
2018-04-22T05:39:24.196Z,80.19
2018-04-22T05:40:24.105Z,80.19
2018-04-22T05:41:24.032Z,80.43
2018-04-22T05:42:23.977Z,80.71
2018-04-22T05:43:23.881Z,79.95
2018-04-22T05:44:23.817Z,79.85
2018-04-22T05:45:24.044Z,79.37
2018-04-22T05:46:23.665Z,79.37
2018-04-22T05:47:23.589Z,78.99
2018-04-22T05:48:23.512Z,79.18
2018-04-22T05:49:23.443Z,78.89
2018-04-22T05:50:23.362Z,78.80
2018-04-22T05:51:23.295Z,78.42
2018-04-22T05:52:23.218Z,78.42
2018-04-22T05:53:23.140Z,79.08
2018-04-22T05:54:23.071Z,78.99
2018-04-22T05:55:22.989Z,79.13
2018-04-22T05:56:22.918Z,78.36
2018-04-22T05:57:22.842Z,78.51
2018-04-22T05:58:22.771Z,78.42
2018-04-22T05:59:22.698Z,78.84
2018-04-22T06:00:22.638Z,78.45
2018-04-22T06:01:22.548Z,78.74
2018-04-22T06:02:22.472Z,78.17
2018-04-22T06:03:22.406Z,78.55
2018-04-22T06:04:22.326Z,77.88
2018-04-22T06:05:22.258Z,78.55
2018-04-22T06:06:22.193Z,78.07
2018-04-22T06:07:22.102Z,78.07
2018-04-22T06:08:22.029Z,77.78
2018-04-22T06:09:21.955Z,77.31
2018-04-22T06:10:21.897Z,77.31
2018-04-22T06:11:21.809Z,77.40
2018-04-22T06:12:21.733Z,77.40
2018-04-22T06:13:21.664Z,77.11
2018-04-22T06:14:21.596Z,77.69
2018-04-22T06:15:21.521Z,77.88
2018-04-22T06:16:21.443Z,78.07
2018-04-22T06:17:21.413Z,78.40
2018-04-22T06:18:21.296Z,77.82
2018-04-22T06:19:21.220Z,77.63
2018-04-22T06:20:21.145Z,77.34
2018-04-22T06:21:21.071Z,77.92
2018-04-22T06:22:20.997Z,77.44
2018-04-22T06:23:20.925Z,77.25
2018-04-22T06:24:20.853Z,77.00
2018-04-22T06:25:20.776Z,76.62
2018-04-22T06:26:20.705Z,76.42
2018-04-22T06:27:20.633Z,76.52
2018-04-22T06:28:20.587Z,75.75
2018-04-22T06:29:20.484Z,75.95
2018-04-22T06:30:20.423Z,75.65
2018-04-22T06:31:20.336Z,75.95
2018-04-22T06:32:20.262Z,76.71
2018-04-22T06:33:20.193Z,76.71
2018-04-22T06:34:20.130Z,76.23
2018-04-22T06:35:20.051Z,76.42
2018-04-22T06:36:19.970Z,76.14
2018-04-22T06:37:19.898Z,75.98
2018-04-22T06:38:19.823Z,75.21
2018-04-22T06:39:19.767Z,74.64
2018-04-22T06:40:19.685Z,74.64
2018-04-22T06:41:19.606Z,74.83
2018-04-22T06:42:19.532Z,74.73
2018-04-22T06:43:19.455Z,74.83
2018-04-22T06:44:19.390Z,74.83
2018-04-22T06:45:19.315Z,75.21
2018-04-22T06:46:19.240Z,74.73
2018-04-22T06:47:19.168Z,74.16
2018-04-22T06:48:19.093Z,73.87
2018-04-22T06:49:19.029Z,74.35
2018-04-22T06:50:18.946Z,74.58
2018-04-22T06:51:18.875Z,74.26
2018-04-22T06:52:18.800Z,74.44
2018-04-22T06:53:18.751Z,74.44
2018-04-22T06:54:18.655Z,74.29
2018-04-22T06:55:18.582Z,73.33
2018-04-22T06:56:18.514Z,73.62
2018-04-22T06:57:18.444Z,73.14
2018-04-22T06:58:18.364Z,73.14
2018-04-22T06:59:18.309Z,72.85
2018-04-22T07:00:18.220Z,73.14
2018-04-22T07:01:18.146Z,72.75
2018-04-22T07:02:18.078Z,72.56
2018-04-22T07:03:18.008Z,73.14
2018-04-22T07:04:17.930Z,73.33
2018-04-22T07:05:17.859Z,73.14
2018-04-22T07:06:17.786Z,73.33
2018-04-22T07:07:17.711Z,73.04
2018-04-22T07:08:17.638Z,72.99
2018-04-22T07:09:17.568Z,72.47
2018-04-22T07:10:17.493Z,72.79
2018-04-22T07:11:17.421Z,72.41
2018-04-22T07:12:17.349Z,72.31
2018-04-22T07:13:17.275Z,72.31
2018-04-22T07:14:17.203Z,72.50
2018-04-22T07:15:17.132Z,72.79
2018-04-22T07:16:17.059Z,72.31
2018-04-22T07:17:16.989Z,72.12
2018-04-22T07:18:16.920Z,72.02
2018-04-22T07:19:16.851Z,72.02
2018-04-22T07:20:16.842Z,70.87
2018-04-22T07:21:16.698Z,71.25
2018-04-22T07:22:16.625Z,71.73
2018-04-22T07:23:16.554Z,71.16
2018-04-22T07:24:16.487Z,70.90
2018-04-22T07:25:16.410Z,70.72
2018-04-22T07:26:16.340Z,70.72
2018-04-22T07:27:16.270Z,70.72
2018-04-22T07:28:16.192Z,70.81
2018-04-22T07:29:16.178Z,70.72
2018-04-22T07:30:16.048Z,70.72
2018-04-22T07:31:15.975Z,70.62
2018-04-22T07:32:15.947Z,70.52
2018-04-22T07:33:15.835Z,70.14
2018-04-22T07:34:15.760Z,69.95
2018-04-22T07:35:15.690Z,69.85
2018-04-22T07:36:15.621Z,70.14
2018-04-22T07:37:15.544Z,69.75
2018-04-22T07:38:15.479Z,69.50
2018-04-22T07:39:15.401Z,69.46
2018-04-22T07:40:15.333Z,69.40
2018-04-22T07:41:15.301Z,69.21
2018-04-22T07:42:15.186Z,69.21
2018-04-22T07:43:15.114Z,68.54
2018-04-22T07:44:15.045Z,68.73
2018-04-22T07:45:14.972Z,68.63
2018-04-22T07:46:14.901Z,68.25
2018-04-22T07:47:14.827Z,68.44
2018-04-22T07:48:14.760Z,68.25
2018-04-22T07:49:14.683Z,68.54
2018-04-22T07:50:14.618Z,67.71
2018-04-22T07:51:14.542Z,67.42
2018-04-22T07:52:14.478Z,67.13
2018-04-22T07:53:14.406Z,68.09
2018-04-22T07:54:14.324Z,68.19
2018-04-22T07:55:14.251Z,68.29
2018-04-22T07:56:14.182Z,68.57
2018-04-22T07:57:14.110Z,68.09
2018-04-22T07:58:14.042Z,68.57
2018-04-22T07:59:13.973Z,67.90
2018-04-22T08:00:13.898Z,67.99
2018-04-22T08:01:13.828Z,68.57
2018-04-22T08:02:13.783Z,67.61
2018-04-22T08:03:13.681Z,66.94
2018-04-22T08:04:13.609Z,67.26
2018-04-22T08:05:13.540Z,67.55
2018-04-22T08:06:13.467Z,68.03
2018-04-22T08:07:13.406Z,67.55
2018-04-22T08:08:13.329Z,67.74
2018-04-22T08:09:13.255Z,68.13
2018-04-22T08:10:13.184Z,68.13
2018-04-22T08:11:13.111Z,67.74
2018-04-22T08:12:13.043Z,67.45
2018-04-22T08:13:12.970Z,66.78
2018-04-22T08:14:12.899Z,67.26
2018-04-22T08:15:12.825Z,67.07
2018-04-22T08:16:12.766Z,65.46
2018-04-22T08:17:12.685Z,65.85
2018-04-22T08:18:12.612Z,66.04
2018-04-22T08:19:12.551Z,65.17
2018-04-22T08:20:12.471Z,64.69
2018-04-22T08:21:12.402Z,65.56
2018-04-22T08:22:12.329Z,65.94
2018-04-22T08:23:12.260Z,65.85
2018-04-22T08:24:12.196Z,65.66
2018-04-22T08:25:12.118Z,64.79
2018-04-22T08:26:12.045Z,63.85
2018-04-22T08:27:11.974Z,64.59
2018-04-22T08:28:11.946Z,64.25
2018-04-22T08:29:11.835Z,63.38
2018-04-22T08:30:11.768Z,63.47
2018-04-22T08:31:11.691Z,63.47
2018-04-22T08:32:11.627Z,63.57
2018-04-22T08:33:11.554Z,62.80
2018-04-22T08:34:11.477Z,62.70
2018-04-22T08:35:11.447Z,63.28
2018-04-22T08:36:11.343Z,62.54
2018-04-22T08:37:11.268Z,63.02
2018-04-22T08:38:11.204Z,62.25
2018-04-22T08:39:11.126Z,61.00
2018-04-22T08:40:11.056Z,61.29
2018-04-22T08:41:10.987Z,61.58
2018-04-22T08:42:10.913Z,61.29
2018-04-22T08:43:10.870Z,62.63
2018-04-22T08:44:10.775Z,63.02
2018-04-22T08:45:10.707Z,62.35
2018-04-22T08:46:10.645Z,62.15
2018-04-22T08:47:10.574Z,61.48
2018-04-22T08:48:10.510Z,61.29
2018-04-22T08:49:10.427Z,61.48
2018-04-22T08:50:10.350Z,61.58
2018-04-22T08:51:10.297Z,61.90
2018-04-22T08:52:10.224Z,62.76
2018-04-22T08:53:10.141Z,61.99
2018-04-22T08:54:10.067Z,61.80
2018-04-22T08:55:10.008Z,61.22
2018-04-22T08:56:09.932Z,61.22
2018-04-22T08:57:09.860Z,61.51
2018-04-22T08:58:09.788Z,61.41
2018-04-22T08:59:09.728Z,61.13
2018-04-22T09:00:09.678Z,62.09
2018-04-22T09:01:09.581Z,61.93
2018-04-22T09:02:09.544Z,61.25
2018-04-22T09:03:09.437Z,61.06
2018-04-22T09:04:09.369Z,60.86
2018-04-22T09:05:09.299Z,59.61
2018-04-22T09:06:09.293Z,59.23
2018-04-22T09:07:09.158Z,60.10
2018-04-22T09:08:09.087Z,60.10
2018-04-22T09:09:09.026Z,61.09
2018-04-22T09:10:08.952Z,59.93
2018-04-22T09:11:08.878Z,59.16
2018-04-22T09:12:08.812Z,61.09
2018-04-22T09:13:08.747Z,60.41
2018-04-22T09:14:08.669Z,60.51
2018-04-22T09:15:08.600Z,60.13
2018-04-22T09:16:08.539Z,58.97
2018-04-22T09:17:08.460Z,58.68
2018-04-22T09:18:08.394Z,58.77
2018-04-22T09:19:08.322Z,58.19
2018-04-22T09:20:08.254Z,58.58
2018-04-22T09:21:08.183Z,58.68
2018-04-22T09:22:08.113Z,58.87
2018-04-22T09:23:08.044Z,59.28
2018-04-22T09:24:07.974Z,59.19
2018-04-22T09:25:07.907Z,58.70
2018-04-22T09:26:07.835Z,59.09
2018-04-22T09:27:07.763Z,59.00
2018-04-22T09:28:07.695Z,59.45
2018-04-22T09:29:07.630Z,59.77
2018-04-22T09:30:07.559Z,58.90
2018-04-22T09:31:07.488Z,58.10
2018-04-22T09:32:07.436Z,57.35
2018-04-22T09:33:07.402Z,58.90
2018-04-22T09:34:07.280Z,57.54
2018-04-22T09:35:07.209Z,56.87
2018-04-22T09:36:07.144Z,56.48
2018-04-22T09:37:07.075Z,56.68
2018-04-22T09:38:07.003Z,56.29
2018-04-22T09:39:06.936Z,55.81
2018-04-22T09:40:06.867Z,56.58
2018-04-22T09:41:06.796Z,57.96
2018-04-22T09:42:06.727Z,58.15
2018-04-22T09:43:06.692Z,56.20
2018-04-22T09:44:06.605Z,57.84
2018-04-22T09:45:06.522Z,57.57
2018-04-22T09:46:06.450Z,55.26
2018-04-22T09:47:06.381Z,56.41
2018-04-22T09:48:06.310Z,56.99
2018-04-22T09:49:06.243Z,57.77
2018-04-22T09:50:06.174Z,57.29
2018-04-22T09:51:06.104Z,58.06
2018-04-22T09:52:06.036Z,56.99
2018-04-22T09:53:05.969Z,56.03
2018-04-22T09:54:05.900Z,56.41
2018-04-22T09:55:05.828Z,56.90
2018-04-22T09:56:05.763Z,56.32
2018-04-22T09:57:05.692Z,55.26
2018-04-22T09:58:05.680Z,56.05
2018-04-22T09:59:05.552Z,57.70
2018-04-22T10:00:05.484Z,56.63
2018-04-22T10:01:05.416Z,55.19
2018-04-22T10:02:05.345Z,55.29
2018-04-22T10:03:05.283Z,55.38
2018-04-22T10:04:05.208Z,54.90
2018-04-22T10:05:05.141Z,54.61
2018-04-22T10:06:05.071Z,55.57
2018-04-22T10:07:05.012Z,55.19
2018-04-22T10:08:04.934Z,54.25
2018-04-22T10:09:04.870Z,53.09
2018-04-22T10:10:04.795Z,52.61
2018-04-22T10:11:04.728Z,52.89
2018-04-22T10:12:04.658Z,55.51
2018-04-22T10:13:04.607Z,55.89
2018-04-22T10:14:04.521Z,56.28
2018-04-22T10:15:04.452Z,55.60
2018-04-22T10:16:04.385Z,55.89
2018-04-22T10:17:04.316Z,55.05
2018-04-22T10:18:04.245Z,54.57
2018-04-22T10:19:04.179Z,54.66
2018-04-22T10:20:04.109Z,54.17
2018-04-22T10:21:04.043Z,53.11
2018-04-22T10:22:03.975Z,53.21
2018-04-22T10:23:03.906Z,54.08
2018-04-22T10:24:03.837Z,54.79
2018-04-22T10:25:03.769Z,53.33
2018-04-22T10:26:03.704Z,52.85
2018-04-22T10:27:03.632Z,52.75
2018-04-22T10:28:03.577Z,52.85
2018-04-22T10:29:03.497Z,51.40
2018-04-22T10:30:03.428Z,52.56
2018-04-22T10:31:03.359Z,51.32
2018-04-22T10:32:03.293Z,51.20
2018-04-22T10:33:03.224Z,51.72
2018-04-22T10:34:03.156Z,51.23
2018-04-22T10:35:03.093Z,51.81
2018-04-22T10:36:03.051Z,51.72
2018-04-22T10:37:02.953Z,51.42
2018-04-22T10:38:02.883Z,53.36
2018-04-22T10:39:02.816Z,53.65
2018-04-22T10:40:02.763Z,53.36
2018-04-22T10:41:02.687Z,52.68
2018-04-22T10:42:02.677Z,52.61
2018-04-22T10:43:02.546Z,53.00
2018-04-22T10:44:02.480Z,51.54
2018-04-22T10:45:02.413Z,51.45
2018-04-22T10:46:02.346Z,51.74
2018-04-22T10:47:02.279Z,51.16
2018-04-22T10:48:02.209Z,49.51
2018-04-22T10:49:02.140Z,50.41
2018-04-22T10:50:02.075Z,50.50
2018-04-22T10:51:02.020Z,49.73
2018-04-22T10:52:01.944Z,50.99
2018-04-22T10:53:01.881Z,50.70
2018-04-22T10:54:01.806Z,48.76
2018-04-22T10:55:01.829Z,48.95
2018-04-22T10:56:01.673Z,46.92
2018-04-22T10:57:01.621Z,47.62
2018-04-22T10:58:01.615Z,49.37
2018-04-22T10:59:01.471Z,50.53
2018-04-22T11:00:01.404Z,48.30
2018-04-22T11:01:01.337Z,47.13
2018-04-22T11:02:01.279Z,46.16
2018-04-22T11:03:01.212Z,47.52
2018-04-22T11:04:01.139Z,45.78
2018-04-22T11:05:01.107Z,44.90
2018-04-22T11:06:01.002Z,45.41
2018-04-22T11:07:00.936Z,45.10
2018-04-22T11:08:00.867Z,43.76
2018-04-22T11:09:00.804Z,44.15
2018-04-22T11:10:00.738Z,42.69
2018-04-22T11:11:01.315Z,41.63
2018-04-22T11:12:00.601Z,42.50
2018-04-22T11:13:00.535Z,45.02
2018-04-22T11:14:00.470Z,43.18
2018-04-22T11:15:00.405Z,42.69
2018-04-22T11:16:00.335Z,42.50
2018-04-22T11:17:00.271Z,41.63
2018-04-22T11:18:02.751Z,42.23
2018-04-22T11:19:00.137Z,44.17
2018-04-22T11:20:00.071Z,43.49
2018-04-22T11:21:00.004Z,43.30
2018-04-22T11:21:59.939Z,44.95
2018-04-22T11:22:59.872Z,43.10
2018-04-22T11:23:59.803Z,42.25
2018-04-22T11:24:59.739Z,43.41
2018-04-22T11:25:59.680Z,41.86
2018-04-22T11:26:59.606Z,41.38
2018-04-22T11:27:59.540Z,41.77
2018-04-22T11:28:59.472Z,42.15
2018-04-22T11:29:59.406Z,42.36
2018-04-22T11:30:59.339Z,41.10
2018-04-22T11:31:59.275Z,41.18
2018-04-22T11:32:59.213Z,42.35
2018-04-22T11:33:59.765Z,42.15
2018-04-22T11:34:59.075Z,41.67
2018-04-22T11:35:59.011Z,43.05
2018-04-22T11:36:58.957Z,42.95
2018-04-22T11:37:58.878Z,39.65
2018-04-22T11:38:58.856Z,38.57
2018-04-22T11:39:58.746Z,37.22
2018-04-22T11:40:58.679Z,37.51
2018-04-22T11:41:58.627Z,37.62
2018-04-22T11:42:58.552Z,36.94
2018-04-22T11:43:58.482Z,36.85
2018-04-22T11:44:58.420Z,37.52
2018-04-22T11:45:58.352Z,35.97
2018-04-22T11:46:58.288Z,35.78
2018-04-22T11:47:58.223Z,35.58
2018-04-22T11:48:58.155Z,34.52
2018-04-22T11:49:58.091Z,34.22
2018-04-22T11:50:58.029Z,32.96
2018-04-22T11:51:57.961Z,33.06
2018-04-22T11:52:57.892Z,35.19
2018-04-22T11:53:57.840Z,36.16
2018-04-22T11:54:57.769Z,37.74
2018-04-22T11:55:57.697Z,38.71
2018-04-22T11:56:57.633Z,38.42
2018-04-22T11:57:57.570Z,40.09
2018-04-22T11:58:57.501Z,38.73
2018-04-22T11:59:57.485Z,40.09
2018-04-22T12:00:57.370Z,38.83
2018-04-22T12:01:57.304Z,38.05
2018-04-22T12:02:57.238Z,38.34
2018-04-22T12:03:57.174Z,39.03
2018-04-22T12:04:57.110Z,37.10
2018-04-22T12:05:57.043Z,38.85
2018-04-22T12:06:56.980Z,37.97
2018-04-22T12:07:56.913Z,38.46
2018-04-22T12:08:56.855Z,37.70
2018-04-22T12:09:56.786Z,37.99
2018-04-22T12:10:56.735Z,37.41
2018-04-22T12:11:56.656Z,38.79
2018-04-22T12:12:56.593Z,39.37
2018-04-22T12:13:56.525Z,39.29
2018-04-22T12:14:56.464Z,36.27
2018-04-22T12:15:56.397Z,32.57
2018-04-22T12:16:56.338Z,33.34
2018-04-22T12:17:56.269Z,33.26
2018-04-22T12:18:56.226Z,33.85
2018-04-22T12:19:56.143Z,34.63
2018-04-22T12:20:56.083Z,35.43
2018-04-22T12:21:56.019Z,34.92
2018-04-22T12:22:55.959Z,34.05
2018-04-22T12:23:55.898Z,34.34
2018-04-22T12:24:55.836Z,34.34
2018-04-22T12:25:55.773Z,32.29
2018-04-22T12:26:55.712Z,32.31
2018-04-22T12:27:55.651Z,32.53
2018-04-22T12:28:55.604Z,30.98
2018-04-22T12:29:55.528Z,30.52
2018-04-22T12:30:55.485Z,27.97
2018-04-22T12:31:55.470Z,28.75
2018-04-22T12:32:55.349Z,30.12
2018-04-22T12:33:55.289Z,30.82
2018-04-22T12:34:55.230Z,28.88
2018-04-22T12:35:55.173Z,27.81
2018-04-22T12:36:55.114Z,29.02
2018-04-22T12:37:55.076Z,27.97
2018-04-22T12:38:54.997Z,26.89
2018-04-22T12:39:54.939Z,26.62
2018-04-22T12:40:54.883Z,28.02
2018-04-22T12:41:54.828Z,27.06
2018-04-22T12:42:54.767Z,26.10
2018-04-22T12:43:54.711Z,24.84
2018-04-22T12:44:54.656Z,24.64
2018-04-22T12:45:54.602Z,25.04
2018-04-22T12:46:54.545Z,22.60
2018-04-22T12:47:54.527Z,24.79
2018-04-22T12:48:54.438Z,20.45
2018-04-22T12:49:54.383Z,19.85
2018-04-22T12:50:54.324Z,20.40
2018-04-22T12:51:54.285Z,22.24
2018-04-22T12:52:54.217Z,22.26